Hunt Field
KLND : now visible

Airfield :











YOU CAN JOIN US ON...

 
LOGIN :

Register | Disclaimer

   EN    FR    IT 

 









Legend :    VFR   Marginal VFR   IFR   Intensive IFR   Very Intensive IFR
Visi :
Ceiling :
>= 8 km
>= 3000ft
5 to 8 km
1000 to 3000 ft
1500m to 5 km
500 to 1000 ft
800 to 1500m
200 to 500 ft
< 800m
< 200 ft
Symbols :   Thunderstorms  Fog  Heavy snow  Heavy precipitations  Wind > 20 kt






- Airport Elevation : 5586 ft


KLND - Hunt Field

CURRENT METAR :
  • 082053Z AUTO VRB05KT 10SM CLR 01/M04 A2962 RMK AO2 SLP034 T00111039 58003

EXPIRED METARs :
  • 081953Z AUTO 05003KT 10SM CLR 00/M04 A2962 RMK AO2 SLP033 T00001039
  • 081853Z AUTO 21007KT 10SM CLR M01/M04 A2964 RMK AO2 SLP041 T10061039

TAF KLND
Valid from the 08 at 18:00 until the 09 at 18:00 UTC


081739Z 0818/0918 VRB05KT P6SM SCT050 BKN100
FM090300 01008KT P6SM VCSH BKN040
FM090400 36007KT 4SM -SN OVC018
FM091000 VRB04KT P6SM VCSH SCT018 OVC030



MET'MAP, your aeronautical weather chart ! - Copyright ORBIFLY December 2007 - Disclaimer

ORBIFLY MET'MAP TEAM :

Programming & Development : Alexandra Zaïnal
Concept & original design : Baudouin d'Aumeries
Assistance for programming : Marc-Olivier Méhu
Technical & hardware support : Manuel Goepfert

Contact : metmap@orbifly.com




SOURCES & CREDITS :

   NOAA       Earth
Advisory